createdAt,value
2019-03-30T03:07:23.346Z,16.8
2019-03-30T03:08:13.745Z,16.8
2019-03-30T03:09:04.105Z,16.8
2019-03-30T03:09:53.652Z,16.8
2019-03-30T03:10:44.157Z,16.8
2019-03-30T03:11:33.142Z,16.8
2019-03-30T03:12:23.450Z,16.8
2019-03-30T03:13:13.262Z,16.8
2019-03-30T03:14:03.989Z,16.8
2019-03-30T03:14:53.384Z,16.8
2019-03-30T03:15:43.600Z,16.8
2019-03-30T03:16:35.954Z,16.8
2019-03-30T03:17:24.638Z,16.8
2019-03-30T03:18:14.826Z,16.8
2019-03-30T03:19:03.946Z,16.8
2019-03-30T03:19:53.437Z,16.8
2019-03-30T03:20:43.951Z,16.8
2019-03-30T03:21:33.587Z,16.8
2019-03-30T03:22:23.983Z,16.8
2019-03-30T03:23:14.731Z,16.8
2019-03-30T03:24:04.842Z,16.8
2019-03-30T03:24:54.625Z,16.8
2019-03-30T03:25:44.434Z,16.8
2019-03-30T03:26:34.569Z,16.8
2019-03-30T03:27:24.783Z,16.8
2019-03-30T03:28:15.326Z,16.8
2019-03-30T03:29:05.122Z,16.8
2019-03-30T03:29:54.765Z,16.8
2019-03-30T03:30:45.711Z,16.8
2019-03-30T03:31:35.630Z,16.8
2019-03-30T03:32:25.208Z,16.8
2019-03-30T03:33:16.036Z,16.8
2019-03-30T03:34:06.367Z,16.8
2019-03-30T03:34:55.785Z,16.8
2019-03-30T03:35:45.601Z,16.8
2019-03-30T03:36:35.377Z,16.8
2019-03-30T03:37:46.384Z,16.8
2019-03-30T03:38:15.519Z,16.8
2019-03-30T03:39:05.929Z,16.8
2019-03-30T03:39:55.702Z,16.8
2019-03-30T03:40:45.753Z,16.8
2019-03-30T03:41:36.191Z,16.8
2019-03-30T03:42:26.214Z,16.8
2019-03-30T03:43:15.637Z,16.8
2019-03-30T03:44:05.956Z,16.8
2019-03-30T03:44:55.765Z,16.8
2019-03-30T03:45:46.708Z,16.8
2019-03-30T03:46:35.507Z,16.8
2019-03-30T03:47:25.863Z,16.8
2019-03-30T03:48:16.470Z,16.8
2019-03-30T03:49:05.250Z,16.8
2019-03-30T03:49:56.945Z,16.8
2019-03-30T03:50:46.443Z,16.8
2019-03-30T03:51:37.080Z,16.8
2019-03-30T03:52:26.068Z,16.8
2019-03-30T03:53:15.800Z,16.8
2019-03-30T03:54:06.268Z,16.8
2019-03-30T03:54:56.651Z,16.8
2019-03-30T03:55:46.237Z,16.8
2019-03-30T03:56:37.440Z,16.8
2019-03-30T03:57:27.054Z,16.8
2019-03-30T03:58:17.594Z,16.8
2019-03-30T03:59:06.605Z,16.8
2019-03-30T03:59:56.470Z,16.8
2019-03-30T04:00:47.194Z,16.8
2019-03-30T04:01:37.827Z,16.8
2019-03-30T04:02:27.028Z,16.8
2019-03-30T04:03:17.914Z,16.8
2019-03-30T04:04:07.456Z,16.8
2019-03-30T04:04:57.755Z,16.8
2019-03-30T04:05:48.301Z,16.8
2019-03-30T04:06:38.090Z,16.8
2019-03-30T04:07:28.031Z,16.8
2019-03-30T04:08:17.761Z,16.8
2019-03-30T04:09:08.067Z,16.8
2019-03-30T04:09:57.372Z,16.8
2019-03-30T04:10:48.197Z,16.8
2019-03-30T04:11:37.191Z,16.8
2019-03-30T04:12:28.349Z,16.8
2019-03-30T04:13:17.771Z,16.8
2019-03-30T04:14:08.705Z,16.8
2019-03-30T04:14:57.901Z,16.8
2019-03-30T04:15:48.779Z,16.8
2019-03-30T04:16:38.521Z,16.8
2019-03-30T04:17:28.042Z,16.8
2019-03-30T04:18:18.560Z,16.8
2019-03-30T04:19:08.829Z,16.8
2019-03-30T04:19:58.760Z,16.8
2019-03-30T04:20:48.129Z,16.8
2019-03-30T04:21:52.105Z,16.8
2019-03-30T04:22:28.095Z,16.8
2019-03-30T04:23:17.943Z,16.8
2019-03-30T04:24:08.567Z,16.8
2019-03-30T04:24:57.999Z,16.8
2019-03-30T04:25:48.103Z,16.8
2019-03-30T04:26:37.843Z,16.8
2019-03-30T04:27:28.910Z,16.8
2019-03-30T04:28:19.053Z,16.8
2019-03-30T04:29:09.078Z,16.8
2019-03-30T04:29:59.849Z,16.8
2019-03-30T04:30:48.834Z,16.8
2019-03-30T04:31:39.949Z,16.8
2019-03-30T04:32:29.543Z,16.8
2019-03-30T04:33:19.938Z,16.8
2019-03-30T04:34:09.190Z,16.8
2019-03-30T04:34:58.857Z,16.8
2019-03-30T04:35:49.420Z,16.8
2019-03-30T04:36:38.856Z,16.8
2019-03-30T04:37:29.260Z,16.8
2019-03-30T04:38:23.030Z,16.8
2019-03-30T04:39:09.889Z,16.8
2019-03-30T04:39:59.633Z,16.8
2019-03-30T04:40:49.974Z,16.8
2019-03-30T04:41:39.997Z,16.8
2019-03-30T04:42:30.302Z,16.8
2019-03-30T04:43:20.212Z,16.8
2019-03-30T04:44:10.269Z,16.8
2019-03-30T04:45:00.906Z,16.8
2019-03-30T04:45:50.771Z,16.8
2019-03-30T04:46:40.399Z,16.8
2019-03-30T04:47:30.789Z,16.8
2019-03-30T04:48:21.171Z,16.8
2019-03-30T04:49:10.876Z,16.8
2019-03-30T04:50:00.423Z,16.8
2019-03-30T04:50:50.169Z,16.8
2019-03-30T04:51:39.654Z,16.8
2019-03-30T04:52:30.513Z,16.8
2019-03-30T04:53:20.310Z,16.8
2019-03-30T04:54:10.403Z,16.8
2019-03-30T04:55:00.951Z,16.8
2019-03-30T04:55:50.618Z,16.8
2019-03-30T04:56:41.198Z,16.8
2019-03-30T04:57:30.983Z,16.8
2019-03-30T04:58:20.460Z,16.8
2019-03-30T04:59:11.015Z,16.8
2019-03-30T05:00:01.557Z,16.8
2019-03-30T05:00:51.657Z,16.8
2019-03-30T05:01:42.125Z,16.8
2019-03-30T05:02:31.450Z,16.8
2019-03-30T05:03:21.808Z,16.7
2019-03-30T05:04:11.678Z,16.8
2019-03-30T05:05:02.439Z,16.8
2019-03-30T05:05:52.014Z,16.8
2019-03-30T05:06:42.360Z,16.7
2019-03-30T05:07:32.107Z,16.7
2019-03-30T05:08:22.158Z,16.7
2019-03-30T05:09:12.515Z,16.8
2019-03-30T05:10:02.825Z,16.7
2019-03-30T05:10:51.620Z,16.7
2019-03-30T05:11:42.692Z,16.7
2019-03-30T05:12:32.465Z,16.7
2019-03-30T05:13:22.255Z,16.8
2019-03-30T05:14:12.915Z,16.8
2019-03-30T05:15:02.909Z,16.8
2019-03-30T05:15:52.139Z,16.8
2019-03-30T05:16:42.822Z,16.8
2019-03-30T05:17:52.260Z,16.8
2019-03-30T05:18:22.329Z,16.8
2019-03-30T05:19:12.617Z,16.8
2019-03-30T05:20:03.272Z,16.8
2019-03-30T05:20:53.307Z,16.8
2019-03-30T05:21:42.824Z,16.8
2019-03-30T05:22:32.781Z,16.8
2019-03-30T05:23:22.267Z,16.8
2019-03-30T05:24:12.834Z,16.8
2019-03-30T05:25:03.259Z,16.8
2019-03-30T05:25:52.658Z,16.8
2019-03-30T05:26:43.730Z,16.8
2019-03-30T05:27:33.561Z,16.8
2019-03-30T05:28:23.692Z,16.8
2019-03-30T05:29:13.140Z,16.8
2019-03-30T05:30:04.299Z,16.7
2019-03-30T05:30:53.278Z,16.7
2019-03-30T05:31:43.606Z,16.7
2019-03-30T05:32:34.214Z,16.8
2019-03-30T05:33:24.206Z,16.7
2019-03-30T05:34:13.737Z,16.7
2019-03-30T05:35:03.584Z,16.8
2019-03-30T05:35:54.114Z,16.7
2019-03-30T05:36:43.686Z,16.7
2019-03-30T05:37:34.299Z,16.7
2019-03-30T05:38:24.697Z,16.7
2019-03-30T05:39:14.357Z,16.7
2019-03-30T05:40:04.726Z,16.7
2019-03-30T05:40:54.553Z,16.7
2019-03-30T05:41:44.581Z,16.7
2019-03-30T05:42:34.878Z,16.7
2019-03-30T05:43:24.701Z,16.7
2019-03-30T05:44:14.483Z,16.7
2019-03-30T05:45:06.231Z,16.7
2019-03-30T05:45:54.016Z,16.7
2019-03-30T05:46:44.037Z,16.7
2019-03-30T05:47:34.666Z,16.7
2019-03-30T05:48:25.341Z,16.7
2019-03-30T05:49:14.795Z,16.7
2019-03-30T05:50:05.387Z,16.7
2019-03-30T05:50:55.170Z,16.7
2019-03-30T05:51:44.715Z,16.7
2019-03-30T05:52:38.620Z,16.7
2019-03-30T05:53:24.900Z,16.8
2019-03-30T05:54:15.678Z,16.7
2019-03-30T05:55:05.809Z,16.7
2019-03-30T05:55:55.090Z,16.7
2019-03-30T05:56:45.598Z,16.7
2019-03-30T05:57:34.925Z,16.7
2019-03-30T05:58:25.823Z,16.7
2019-03-30T05:59:15.802Z,16.7
2019-03-30T06:00:05.265Z,16.7
2019-03-30T06:00:55.983Z,16.7
2019-03-30T06:01:45.215Z,16.7
2019-03-30T06:02:36.022Z,16.7
2019-03-30T06:05:23.654Z,16.6
2019-03-30T06:06:13.417Z,16.7
2019-03-30T06:07:03.619Z,16.7
2019-03-30T06:07:53.727Z,16.7
2019-03-30T06:08:43.943Z,16.7
2019-03-30T06:09:33.169Z,16.7
2019-03-30T06:10:23.735Z,16.7
2019-03-30T06:11:12.944Z,16.7
2019-03-30T06:12:04.122Z,16.7
2019-03-30T06:12:53.652Z,16.6
2019-03-30T06:13:43.990Z,16.6
2019-03-30T06:14:34.211Z,16.7
2019-03-30T06:15:23.879Z,16.7
2019-03-30T06:16:13.853Z,16.7
2019-03-30T06:17:04.221Z,16.7
2019-03-30T06:17:53.689Z,16.7
2019-03-30T06:18:43.774Z,16.7
2019-03-30T06:19:34.438Z,16.7
2019-03-30T06:20:23.603Z,16.7
2019-03-30T06:21:14.506Z,16.7
2019-03-30T06:22:04.611Z,16.7
2019-03-30T06:22:54.343Z,16.7
2019-03-30T06:23:44.759Z,16.7
2019-03-30T06:24:33.899Z,16.7
2019-03-30T06:25:25.012Z,16.7
2019-03-30T06:26:14.184Z,16.7
2019-03-30T06:27:04.653Z,16.7
2019-03-30T06:27:54.694Z,16.7
2019-03-30T06:28:45.058Z,16.7
2019-03-30T06:29:34.523Z,16.7
2019-03-30T06:30:24.988Z,16.7
2019-03-30T06:31:15.213Z,16.7
2019-03-30T06:32:05.069Z,16.7
2019-03-30T06:32:55.331Z,16.7
2019-03-30T06:33:45.385Z,16.7
2019-03-30T06:34:35.778Z,16.7
2019-03-30T06:35:25.899Z,16.7
2019-03-30T06:36:15.918Z,16.7
2019-03-30T06:37:05.411Z,16.7
2019-03-30T06:37:55.725Z,16.8
2019-03-30T06:38:46.023Z,16.8
2019-03-30T06:39:39.478Z,16.7
2019-03-30T06:40:26.157Z,16.8
2019-03-30T06:41:15.883Z,16.8
2019-03-30T06:42:05.978Z,16.8
2019-03-30T06:42:56.121Z,16.8
2019-03-30T06:43:45.343Z,16.8
2019-03-30T06:44:34.778Z,16.8
2019-03-30T06:45:26.285Z,16.8
2019-03-30T06:46:16.282Z,16.8
2019-03-30T06:47:06.705Z,16.8
2019-03-30T06:47:56.717Z,16.8
2019-03-30T06:48:46.772Z,16.8
2019-03-30T06:49:36.815Z,16.8
2019-03-30T06:50:26.859Z,16.8
2019-03-30T06:51:16.634Z,16.9
2019-03-30T06:52:06.702Z,16.9
2019-03-30T06:53:07.192Z,16.9
2019-03-30T06:53:47.078Z,16.9
2019-03-30T06:54:37.159Z,16.9
2019-03-30T06:55:26.973Z,16.9
2019-03-30T06:56:17.069Z,16.9
2019-03-30T06:57:07.332Z,16.9
2019-03-30T06:57:57.197Z,16.9
2019-03-30T06:58:47.214Z,16.9
2019-03-30T06:59:37.539Z,16.9
2019-03-30T07:00:26.771Z,16.9
2019-03-30T07:01:16.605Z,16.9
2019-03-30T07:02:07.504Z,16.9
2019-03-30T07:02:57.560Z,16.9
2019-03-30T07:05:23.074Z,16.8
2019-03-30T07:06:13.439Z,16.9
2019-03-30T07:07:03.244Z,16.8
2019-03-30T07:07:53.816Z,16.8
2019-03-30T07:08:43.467Z,16.8
2019-03-30T07:09:33.916Z,16.8
2019-03-30T07:10:23.708Z,16.8
2019-03-30T07:11:29.316Z,16.8
2019-03-30T07:12:04.244Z,16.8
2019-03-30T07:12:53.867Z,16.8
2019-03-30T07:13:44.019Z,16.8
2019-03-30T07:14:34.242Z,16.8
2019-03-30T07:15:24.056Z,16.8
2019-03-30T07:16:13.723Z,16.9
2019-03-30T07:17:07.551Z,16.9
2019-03-30T07:17:54.016Z,16.9
2019-03-30T07:18:43.511Z,16.9
2019-03-30T07:19:33.285Z,16.8
2019-03-30T07:20:24.228Z,16.9
2019-03-30T07:21:14.237Z,16.8
2019-03-30T07:22:04.614Z,16.8
2019-03-30T07:23:13.320Z,16.8
2019-03-30T07:23:43.826Z,16.9
2019-03-30T07:25:24.470Z,17.1
2019-03-30T07:26:15.096Z,17.1
2019-03-30T07:27:04.942Z,17.2
2019-03-30T07:27:55.230Z,17.3
2019-03-30T07:28:47.447Z,17.3
2019-03-30T07:29:35.337Z,17.3
2019-03-30T07:30:25.130Z,17.4
2019-03-30T07:31:15.134Z,17.4
2019-03-30T07:32:05.745Z,17.4
2019-03-30T07:32:55.531Z,17.4
2019-03-30T07:33:45.320Z,17.4
2019-03-30T07:34:35.690Z,17.4
2019-03-30T07:35:25.208Z,17.5
2019-03-30T07:36:15.222Z,17.5
2019-03-30T07:37:05.335Z,17.5
2019-03-30T07:37:55.350Z,17.5
2019-03-30T07:38:45.967Z,17.5
2019-03-30T07:39:36.107Z,17.6
2019-03-30T07:40:25.542Z,17.6
2019-03-30T07:41:15.395Z,17.6
2019-03-30T07:42:05.716Z,17.6
2019-03-30T07:42:55.791Z,17.6
2019-03-30T07:43:45.864Z,17.6
2019-03-30T07:44:35.037Z,17.6
2019-03-30T07:45:26.485Z,17.6
2019-03-30T07:46:19.302Z,17.6
2019-03-30T07:47:06.599Z,17.6
2019-03-30T07:47:55.806Z,17.6
2019-03-30T07:48:46.422Z,17.6
2019-03-30T07:49:36.762Z,17.6
2019-03-30T07:50:26.521Z,17.6
2019-03-30T07:51:16.837Z,17.6
2019-03-30T07:52:06.824Z,17.6
2019-03-30T07:52:56.738Z,17.6
2019-03-30T07:53:53.425Z,17.6
2019-03-30T07:54:36.861Z,17.6
2019-03-30T07:55:26.995Z,17.6
2019-03-30T07:56:17.891Z,17.6
2019-03-30T07:57:25.026Z,17.6
2019-03-30T07:57:58.115Z,17.6
2019-03-30T07:58:46.909Z,17.6
2019-03-30T07:59:37.353Z,17.6
2019-03-30T08:00:34.641Z,17.6
2019-03-30T08:01:17.143Z,17.6
2019-03-30T08:02:07.383Z,17.6
2019-03-30T08:03:12.401Z,17.6
2019-03-30T08:03:47.793Z,17.6
2019-03-30T08:04:38.029Z,17.6
2019-03-30T08:05:27.681Z,17.6
2019-03-30T08:06:17.763Z,17.6
2019-03-30T08:07:08.061Z,17.6
2019-03-30T08:07:57.548Z,17.6
2019-03-30T08:08:47.863Z,17.6
2019-03-30T08:09:41.508Z,17.6
2019-03-30T08:10:27.969Z,17.6
2019-03-30T08:11:21.320Z,17.6
2019-03-30T08:12:08.105Z,17.6
2019-03-30T08:12:58.262Z,17.6
2019-03-30T08:13:48.262Z,17.6
2019-03-30T08:14:37.710Z,17.6
2019-03-30T08:15:28.376Z,17.6
2019-03-30T08:16:18.227Z,17.6
2019-03-30T08:17:08.445Z,17.6
2019-03-30T08:17:58.928Z,17.6
2019-03-30T08:18:48.852Z,17.6
2019-03-30T08:19:37.892Z,17.6
2019-03-30T08:20:28.962Z,17.6
2019-03-30T08:21:18.744Z,17.6
2019-03-30T08:22:08.289Z,17.6
2019-03-30T08:22:59.174Z,17.6
2019-03-30T08:23:49.650Z,17.6
2019-03-30T08:24:38.752Z,17.5
2019-03-30T08:25:28.817Z,17.5
2019-03-30T08:26:19.382Z,17.5
2019-03-30T08:27:09.309Z,17.5
2019-03-30T08:27:59.342Z,17.5
2019-03-30T08:28:49.650Z,17.4
2019-03-30T08:29:39.084Z,17.4
2019-03-30T08:30:29.203Z,17.5
2019-03-30T08:31:19.524Z,17.5
2019-03-30T08:32:09.556Z,17.5
2019-03-30T08:32:59.407Z,17.5
2019-03-30T08:33:49.449Z,17.5
2019-03-30T08:34:40.009Z,17.6
2019-03-30T08:35:30.104Z,17.6
2019-03-30T08:36:19.934Z,17.6
2019-03-30T08:37:09.867Z,17.6
2019-03-30T08:37:59.946Z,17.7
2019-03-30T08:38:50.071Z,17.7
2019-03-30T08:39:39.801Z,17.8
2019-03-30T08:40:30.216Z,17.7
2019-03-30T08:41:20.853Z,17.8
2019-03-30T08:42:10.544Z,17.8
2019-03-30T08:43:00.097Z,17.8
2019-03-30T08:43:50.649Z,17.8
2019-03-30T08:44:40.303Z,17.8
2019-03-30T08:45:30.298Z,17.8
2019-03-30T08:46:20.390Z,17.8
2019-03-30T08:47:09.662Z,17.8
2019-03-30T08:48:00.681Z,17.8
2019-03-30T08:48:49.971Z,17.8
2019-03-30T08:49:40.761Z,17.8
2019-03-30T08:50:30.018Z,17.8
2019-03-30T08:51:24.626Z,17.8
2019-03-30T08:52:10.671Z,17.8
2019-03-30T08:53:01.073Z,17.8
2019-03-30T08:54:03.418Z,17.8
2019-03-30T08:54:41.429Z,17.8
2019-03-30T08:55:31.566Z,17.8
2019-03-30T08:56:21.295Z,17.8
2019-03-30T08:57:10.528Z,17.8
2019-03-30T08:58:01.412Z,17.8
2019-03-30T08:58:50.728Z,17.8
2019-03-30T08:59:41.775Z,17.8
2019-03-30T09:00:30.773Z,17.9
2019-03-30T09:01:35.730Z,17.9
2019-03-30T09:02:11.427Z,17.9
2019-03-30T09:03:02.120Z,17.9
2019-03-30T09:03:51.866Z,17.9
2019-03-30T09:04:41.590Z,17.9
2019-03-30T09:05:31.921Z,17.9
2019-03-30T09:06:22.262Z,17.9
2019-03-30T09:07:12.081Z,17.9
2019-03-30T09:08:01.367Z,17.9
2019-03-30T09:08:52.434Z,17.9
2019-03-30T09:09:41.474Z,17.9
2019-03-30T09:10:31.542Z,18
2019-03-30T09:11:22.338Z,18
2019-03-30T09:12:12.262Z,18
2019-03-30T09:13:02.247Z,18
2019-03-30T09:13:52.342Z,18
2019-03-30T09:14:42.867Z,18
2019-03-30T09:15:32.722Z,18
2019-03-30T09:16:22.825Z,18
2019-03-30T09:17:12.772Z,18
2019-03-30T09:18:03.135Z,18.1
2019-03-30T09:18:52.967Z,18.1
2019-03-30T09:19:42.479Z,18.1
2019-03-30T09:20:32.571Z,18.1
2019-03-30T09:21:22.134Z,18.1
2019-03-30T09:22:13.019Z,18.1
2019-03-30T09:23:03.543Z,18.1
2019-03-30T09:23:52.763Z,18.1
2019-03-30T09:24:42.819Z,18.1
2019-03-30T09:25:33.377Z,18.1
2019-03-30T09:26:24.999Z,18.1
2019-03-30T09:27:13.196Z,18.1
2019-03-30T09:28:03.365Z,18.1
2019-03-30T09:28:53.393Z,18.1
2019-03-30T09:29:43.493Z,18.1
2019-03-30T09:30:33.587Z,18.1
2019-03-30T09:31:23.653Z,18.1
2019-03-30T09:32:22.917Z,18.1
2019-03-30T09:33:03.850Z,18.1
2019-03-30T09:33:52.981Z,18.1
2019-03-30T09:34:43.513Z,18.2
2019-03-30T09:35:33.713Z,18.2
2019-03-30T09:36:23.694Z,18.2
2019-03-30T09:37:13.253Z,18.2
2019-03-30T09:38:03.822Z,18.2
2019-03-30T09:38:53.714Z,18.2
2019-03-30T09:39:43.253Z,18.2
2019-03-30T09:40:32.948Z,18.2
2019-03-30T09:41:23.810Z,18.2
2019-03-30T09:42:13.887Z,18.2
2019-03-30T09:43:03.175Z,18.2
2019-03-30T09:43:54.220Z,18.2
2019-03-30T09:44:44.230Z,18.3
2019-03-30T09:45:34.488Z,18.3
2019-03-30T09:46:24.087Z,18.3
2019-03-30T09:47:14.195Z,18.3
2019-03-30T09:48:04.805Z,18.3
2019-03-30T09:48:53.780Z,18.3
2019-03-30T09:49:44.074Z,18.3
2019-03-30T09:50:34.702Z,18.3
2019-03-30T09:51:24.745Z,18.3
2019-03-30T09:52:13.749Z,18.3
2019-03-30T09:53:04.968Z,18.3
2019-03-30T09:53:54.350Z,18.3
2019-03-30T09:54:44.472Z,18.3
2019-03-30T09:55:35.855Z,18.3
2019-03-30T09:56:24.585Z,18.3
2019-03-30T09:57:15.567Z,18.3
2019-03-30T09:58:05.575Z,18.3
2019-03-30T09:58:54.541Z,18.3
2019-03-30T09:59:45.077Z,18.3
2019-03-30T10:00:35.505Z,18.3
2019-03-30T10:01:25.804Z,18.4
2019-03-30T10:02:15.517Z,18.4
2019-03-30T10:03:08.974Z,18.4
2019-03-30T10:03:55.171Z,18.4
2019-03-30T10:06:36.326Z,18.4
2019-03-30T10:07:12.859Z,18.4
2019-03-30T10:08:02.814Z,18.4
2019-03-30T10:08:53.139Z,18.4
2019-03-30T10:09:42.171Z,18.4
2019-03-30T10:10:32.254Z,18.4
2019-03-30T10:11:22.746Z,18.4
2019-03-30T10:12:12.539Z,18.4
2019-03-30T10:13:03.257Z,18.4
2019-03-30T10:13:52.976Z,18.4
2019-03-30T10:14:42.718Z,18.4
2019-03-30T10:15:33.333Z,18.4
2019-03-30T10:16:23.871Z,18.4
2019-03-30T10:17:13.952Z,18.4
2019-03-30T10:18:03.556Z,18.4
2019-03-30T10:18:53.301Z,18.4
2019-03-30T10:19:43.351Z,18.4
2019-03-30T10:20:34.453Z,18.4
2019-03-30T10:21:24.035Z,18.4
2019-03-30T10:22:13.595Z,18.4
2019-03-30T10:23:04.003Z,18.5
2019-03-30T10:23:54.220Z,18.5
2019-03-30T10:24:46.514Z,18.5
2019-03-30T10:25:34.018Z,18.5
2019-03-30T10:26:24.848Z,18.5
2019-03-30T10:27:14.255Z,18.6
2019-03-30T10:28:04.438Z,18.6
2019-03-30T10:28:54.892Z,18.6
2019-03-30T10:29:44.105Z,18.6
2019-03-30T10:30:34.630Z,18.6
2019-03-30T10:31:24.200Z,18.6
2019-03-30T10:32:15.104Z,18.6
2019-03-30T10:33:04.680Z,18.6
2019-03-30T10:33:54.885Z,18.6
2019-03-30T10:34:48.198Z,18.6
2019-03-30T10:35:34.817Z,18.6
2019-03-30T10:36:25.030Z,18.6
2019-03-30T10:37:15.780Z,18.6
2019-03-30T10:38:05.257Z,18.6
2019-03-30T10:38:54.944Z,18.6
2019-03-30T10:39:45.087Z,18.6
2019-03-30T10:40:35.950Z,18.6
2019-03-30T10:41:25.680Z,18.6
2019-03-30T10:42:15.224Z,18.6
2019-03-30T10:43:06.105Z,18.6
2019-03-30T10:43:55.867Z,18.6
2019-03-30T10:44:45.677Z,18.6
2019-03-30T10:45:35.452Z,18.6
2019-03-30T10:46:25.739Z,18.6
2019-03-30T10:47:16.119Z,18.6
2019-03-30T10:48:05.890Z,18.6
2019-03-30T10:48:56.294Z,18.6
2019-03-30T10:49:46.295Z,18.6
2019-03-30T10:50:36.077Z,18.6
2019-03-30T10:51:27.071Z,18.6
2019-03-30T10:52:16.261Z,18.6
2019-03-30T10:53:06.589Z,18.6
2019-03-30T10:53:56.911Z,18.6
2019-03-30T10:55:01.504Z,18.6
2019-03-30T10:55:36.446Z,18.6
2019-03-30T10:56:26.616Z,18.6
2019-03-30T10:57:16.581Z,18.6
2019-03-30T10:58:09.148Z,18.6
2019-03-30T10:58:56.658Z,18.6
2019-03-30T10:59:47.356Z,18.6
2019-03-30T11:00:36.815Z,18.6
2019-03-30T11:01:26.818Z,18.6
2019-03-30T11:02:17.282Z,18.6
2019-03-30T11:03:07.513Z,18.6
2019-03-30T11:03:57.635Z,18.6
2019-03-30T11:04:46.058Z,18.6
2019-03-30T11:05:36.934Z,18.6
2019-03-30T11:06:27.280Z,18.6
2019-03-30T11:07:17.147Z,18.6
2019-03-30T11:08:07.901Z,18.6
2019-03-30T11:08:57.683Z,18.6
2019-03-30T11:09:50.755Z,18.6
2019-03-30T11:10:37.810Z,18.6
2019-03-30T11:11:28.063Z,18.6
2019-03-30T11:12:18.205Z,18.6
2019-03-30T11:13:08.044Z,18.6
2019-03-30T11:13:58.035Z,18.6
2019-03-30T11:14:48.475Z,18.6
2019-03-30T11:15:41.495Z,18.6
2019-03-30T11:18:08.348Z,18.6
2019-03-30T11:20:38.234Z,18.6
2019-03-30T11:21:28.829Z,18.6
2019-03-30T11:26:29.195Z,18.8
2019-03-30T11:28:09.155Z,18.8
2019-03-30T11:28:58.924Z,18.8
2019-03-30T11:30:39.097Z,18.8
2019-03-30T11:31:29.668Z,18.8
2019-03-30T11:33:59.524Z,18.8
2019-03-30T11:34:49.044Z,18.8
2019-03-30T11:35:39.926Z,18.8
2019-03-30T11:38:10.091Z,18.8
2019-03-30T11:38:59.829Z,18.8
2019-03-30T11:39:50.261Z,18.8
2019-03-30T11:40:40.213Z,18.8
2019-03-30T11:43:10.440Z,18.8
2019-03-30T11:44:00.485Z,18.8
2019-03-30T11:44:50.756Z,18.8
2019-03-30T11:45:40.602Z,18.8
2019-03-30T11:46:30.386Z,18.8
2019-03-30T11:47:20.800Z,18.8
2019-03-30T11:48:10.287Z,18.8
2019-03-30T11:48:59.633Z,18.8
2019-03-30T11:49:50.485Z,18.8
2019-03-30T11:50:40.504Z,18.8
2019-03-30T11:51:31.060Z,18.8
2019-03-30T11:52:20.772Z,18.8
2019-03-30T11:53:11.235Z,18.8
2019-03-30T11:54:00.889Z,18.8
2019-03-30T11:54:50.992Z,18.8
2019-03-30T11:55:40.842Z,18.8
2019-03-30T11:56:30.903Z,18.8
2019-03-30T11:57:20.996Z,18.8
2019-03-30T11:58:10.484Z,18.8
2019-03-30T11:59:01.070Z,18.8
2019-03-30T11:59:50.842Z,18.8
2019-03-30T12:00:40.667Z,18.8
2019-03-30T12:01:31.052Z,18.8
2019-03-30T12:02:35.420Z,18.8
2019-03-30T12:03:11.374Z,18.8
2019-03-30T12:04:00.598Z,18.8
2019-03-30T12:06:23.192Z,18.8
2019-03-30T12:07:13.167Z,18.8
2019-03-30T12:08:17.676Z,18.8
2019-03-30T12:08:54.046Z,18.8
2019-03-30T12:10:12.920Z,18.8
2019-03-30T12:10:47.191Z,18.8
2019-03-30T12:11:22.678Z,18.8
2019-03-30T12:12:13.046Z,18.8
2019-03-30T12:13:18.816Z,18.8
2019-03-30T12:13:54.119Z,18.8
2019-03-30T12:14:43.489Z,18.8
2019-03-30T12:15:34.921Z,18.8
2019-03-30T12:16:38.397Z,18.8
2019-03-30T12:17:14.366Z,18.8
2019-03-30T12:18:04.898Z,18.8
2019-03-30T12:19:13.355Z,18.8
2019-03-30T12:19:44.033Z,18.8
2019-03-30T12:20:34.383Z,18.8
2019-03-30T12:21:23.881Z,18.8
2019-03-30T12:22:13.913Z,18.8
2019-03-30T12:23:04.651Z,18.8
2019-03-30T12:23:54.161Z,18.8
2019-03-30T12:24:43.553Z,18.8
2019-03-30T12:25:44.547Z,18.8
2019-03-30T12:26:24.501Z,18.8
2019-03-30T12:27:14.598Z,18.8
2019-03-30T12:28:03.250Z,18.8
2019-03-30T12:28:54.715Z,18.8
2019-03-30T12:29:48.688Z,18.8
2019-03-30T12:30:34.475Z,18.8
2019-03-30T12:31:24.866Z,18.8
2019-03-30T12:32:14.960Z,18.8
2019-03-30T12:33:05.016Z,18.8
2019-03-30T12:33:54.336Z,18.8
2019-03-30T12:34:44.990Z,18.8
2019-03-30T12:35:34.241Z,18.8
2019-03-30T12:36:25.075Z,18.8
2019-03-30T12:37:15.547Z,18.8
2019-03-30T12:38:05.173Z,18.8
2019-03-30T12:38:55.222Z,18.8
2019-03-30T12:39:45.013Z,18.8
2019-03-30T12:40:35.091Z,18.8
2019-03-30T12:41:25.142Z,18.8
2019-03-30T12:42:15.722Z,18.8
2019-03-30T12:43:05.782Z,18.8
2019-03-30T12:43:55.661Z,18.8
2019-03-30T12:44:45.318Z,18.8
2019-03-30T12:45:34.919Z,18.8
2019-03-30T12:46:25.557Z,18.8
2019-03-30T12:47:18.348Z,18.8
2019-03-30T12:48:10.257Z,18.8
2019-03-30T12:49:10.899Z,18.8
2019-03-30T12:49:49.090Z,18.8
2019-03-30T12:50:36.558Z,18.8
2019-03-30T14:09:02.506Z,18.8
2019-03-30T14:09:52.706Z,18.8
2019-03-30T14:11:32.348Z,18.8
2019-03-30T14:16:32.468Z,18.6
2019-03-30T14:17:26.153Z,18.6
2019-03-30T14:18:12.635Z,18.6
2019-03-30T14:19:02.908Z,18.6
2019-03-30T14:19:51.935Z,18.6
2019-03-30T14:20:42.992Z,18.6
2019-03-30T14:22:22.565Z,18.6
2019-03-30T14:23:13.722Z,18.6
2019-03-30T14:24:03.267Z,18.6
2019-03-30T14:24:53.289Z,18.6
2019-03-30T14:25:43.836Z,18.6
2019-03-30T14:26:39.506Z,18.6
2019-03-30T14:27:23.678Z,18.6
2019-03-30T14:28:14.059Z,18.6
2019-03-30T14:29:04.071Z,18.6
2019-03-30T14:29:57.900Z,18.6
2019-03-30T14:30:44.236Z,18.6
2019-03-30T14:31:34.524Z,18.6
2019-03-30T14:32:24.588Z,18.6
2019-03-30T14:33:14.383Z,18.6
2019-03-30T14:34:04.179Z,18.6
2019-03-30T14:34:54.793Z,18.6
2019-03-30T14:35:48.152Z,18.6
2019-03-30T14:36:34.080Z,18.6
2019-03-30T14:37:23.840Z,18.6
2019-03-30T14:38:14.458Z,18.6
2019-03-30T14:39:05.143Z,18.6
2019-03-30T14:39:54.603Z,18.6
2019-03-30T14:40:44.386Z,18.6
2019-03-30T14:41:34.715Z,18.6
2019-03-30T14:42:25.062Z,18.6
2019-03-30T14:43:14.562Z,18.6
2019-03-30T14:44:05.170Z,18.6
2019-03-30T14:44:54.749Z,18.6
2019-03-30T14:45:45.602Z,18.5
2019-03-30T14:46:35.690Z,18.5
2019-03-30T14:47:25.471Z,18.5
2019-03-30T14:48:15.774Z,18.5
2019-03-30T14:49:04.977Z,18.6
2019-03-30T14:49:55.930Z,18.6
2019-03-30T14:50:45.649Z,18.6
2019-03-30T14:51:35.717Z,18.6
2019-03-30T14:52:26.140Z,18.6
2019-03-30T14:53:17.432Z,18.6
2019-03-30T14:54:06.010Z,18.6
2019-03-30T14:55:01.434Z,18.6
2019-03-30T14:55:48.608Z,18.6
2019-03-30T14:56:51.659Z,18.6
2019-03-30T14:57:26.655Z,18.6
2019-03-30T14:58:17.167Z,18.6
2019-03-30T14:59:21.591Z,18.6
2019-03-30T14:59:57.091Z,18.6
2019-03-30T15:00:48.086Z,18.6
2019-03-30T15:01:37.876Z,18.6
2019-03-30T15:02:26.980Z,18.6
2019-03-30T15:03:17.485Z,18.6
2019-03-30T15:04:07.150Z,18.6
2019-03-30T15:04:56.912Z,18.6
2019-03-30T15:05:47.024Z,18.6
2019-03-30T15:06:37.386Z,18.6
2019-03-30T15:07:26.588Z,18.6
2019-03-30T15:08:17.137Z,18.6
2019-03-30T15:09:57.353Z,18.6
2019-03-30T15:17:27.907Z,18.6
2019-03-30T15:18:17.403Z,18.6
2019-03-30T15:19:07.580Z,18.6
2019-03-30T15:19:57.846Z,18.6
2019-03-30T15:20:47.948Z,18.6
2019-03-30T15:21:37.928Z,18.6
2019-03-30T15:22:28.265Z,18.6
2019-03-30T15:23:18.235Z,18.6
2019-03-30T15:24:08.728Z,18.6
2019-03-30T15:24:58.365Z,18.6
2019-03-30T15:25:48.720Z,18.6
2019-03-30T15:26:39.148Z,18.4
2019-03-30T15:27:29.090Z,18.4
2019-03-30T15:28:18.773Z,18.4
2019-03-30T15:29:08.411Z,18.4
2019-03-30T15:29:59.304Z,18.5
2019-03-30T15:30:48.804Z,18.5
2019-03-30T15:31:38.873Z,18.5
2019-03-30T15:32:29.467Z,18.5
2019-03-30T15:33:18.752Z,18.5
2019-03-30T15:34:09.371Z,18.5
2019-03-30T15:35:03.287Z,18.4
2019-03-30T15:35:49.721Z,18.4
2019-03-30T15:36:39.282Z,18.4
2019-03-30T15:37:28.553Z,18.4
2019-03-30T15:38:23.187Z,18.4
2019-03-30T15:39:09.949Z,18.4
2019-03-30T15:40:00.004Z,18.4
2019-03-30T15:40:49.559Z,18.4
2019-03-30T15:41:39.656Z,18.4
2019-03-30T15:42:29.715Z,18.5
2019-03-30T15:43:20.013Z,18.5
2019-03-30T15:44:10.062Z,18.5
2019-03-30T15:44:59.357Z,18.5
2019-03-30T15:45:50.439Z,18.5
2019-03-30T15:46:39.927Z,18.5
2019-03-30T15:47:30.297Z,18.5
2019-03-30T15:48:20.633Z,18.5
2019-03-30T15:49:13.999Z,18.5
2019-03-30T15:50:00.492Z,18.5
2019-03-30T15:50:50.280Z,18.5
2019-03-30T15:51:44.317Z,18.5
2019-03-30T15:52:30.932Z,18.5
2019-03-30T15:53:20.999Z,18.5
2019-03-30T15:54:10.779Z,18.5
2019-03-30T15:55:00.401Z,18.5
2019-03-30T15:55:50.896Z,18.4
2019-03-30T15:56:41.263Z,18.4
2019-03-30T15:57:33.818Z,18.4
2019-03-30T15:58:21.165Z,18.4
2019-03-30T15:59:10.919Z,18.3
2019-03-30T16:00:01.381Z,18.3
2019-03-30T16:00:51.074Z,18.3
2019-03-30T16:01:41.606Z,18.4
2019-03-30T16:02:31.686Z,18.3
2019-03-30T16:03:21.509Z,18.4
2019-03-30T16:04:11.855Z,18.4
2019-03-30T16:05:01.890Z,18.3
2019-03-30T16:07:22.711Z,18.3
2019-03-30T16:08:12.930Z,18.4